createdAt,value
2022-09-06T00:00:43.497Z,99.90
2022-09-06T00:03:10.455Z,99.90
2022-09-06T00:05:37.286Z,99.90
2022-09-06T00:08:05.474Z,99.90
2022-09-06T00:10:33.618Z,99.90
2022-09-06T00:13:02.271Z,99.90
2022-09-06T00:15:29.341Z,99.90
2022-09-06T00:17:59.461Z,99.90
2022-09-06T00:20:27.342Z,99.90
2022-09-06T00:23:02.029Z,99.90
2022-09-06T00:25:29.785Z,99.90
2022-09-06T00:27:57.710Z,99.90
2022-09-06T00:30:25.413Z,99.90
2022-09-06T00:32:52.918Z,99.90
2022-09-06T00:35:20.729Z,99.90
2022-09-06T00:37:47.606Z,99.90
2022-09-06T00:40:14.617Z,99.90
2022-09-06T00:42:41.300Z,99.90
2022-09-06T00:45:10.317Z,99.90
2022-09-06T00:47:40.218Z,99.90
2022-09-06T00:50:08.537Z,99.90
2022-09-06T00:52:36.847Z,99.90
2022-09-06T00:55:04.171Z,99.90
2022-09-06T00:57:32.119Z,99.90
2022-09-06T01:00:00.346Z,99.90
2022-09-06T01:02:27.064Z,99.90
2022-09-06T01:04:54.634Z,99.90
2022-09-06T01:07:21.227Z,99.90
2022-09-06T01:10:08.034Z,99.90
2022-09-06T01:12:53.998Z,99.90
2022-09-06T01:15:32.768Z,99.90
2022-09-06T01:18:13.780Z,99.90
2022-09-06T01:20:41.763Z,99.90
2022-09-06T01:23:23.115Z,99.90
2022-09-06T01:26:11.520Z,99.90
2022-09-06T01:28:46.142Z,99.90
2022-09-06T01:31:31.568Z,99.90
2022-09-06T01:34:11.716Z,99.90
2022-09-06T01:37:06.597Z,99.90
2022-09-06T01:39:35.764Z,99.90
2022-09-06T01:42:12.095Z,99.90
2022-09-06T01:45:01.091Z,99.90
2022-09-06T01:47:46.593Z,99.90
2022-09-06T01:50:31.201Z,99.90
2022-09-06T01:53:18.990Z,99.90
2022-09-06T01:56:00.265Z,99.90
2022-09-06T01:58:55.857Z,99.90
2022-09-06T02:01:33.850Z,99.90
2022-09-06T02:04:11.109Z,99.90
2022-09-06T02:06:43.677Z,99.90
2022-09-06T02:09:15.194Z,99.90
2022-09-06T02:12:02.536Z,99.90
2022-09-06T02:14:37.370Z,99.90
2022-09-06T02:17:05.750Z,99.90
2022-09-06T02:20:11.021Z,99.90
2022-09-06T02:22:41.535Z,99.90
2022-09-06T02:25:12.375Z,99.90
2022-09-06T02:27:39.530Z,99.90
2022-09-06T02:30:06.757Z,99.90
2022-09-06T02:32:39.194Z,99.90
2022-09-06T02:35:13.883Z,99.90
2022-09-06T02:37:42.311Z,99.90
2022-09-06T02:40:10.297Z,99.90
2022-09-06T02:42:36.986Z,99.90
2022-09-06T02:45:05.195Z,99.90
2022-09-06T02:47:31.870Z,99.90
2022-09-06T02:49:58.483Z,99.90
2022-09-06T02:52:25.179Z,99.90
2022-09-06T02:54:52.226Z,99.90
2022-09-06T02:57:18.915Z,99.90
2022-09-06T02:59:46.225Z,99.90
2022-09-06T03:02:12.949Z,99.90
2022-09-06T03:04:39.635Z,99.90
2022-09-06T03:07:06.250Z,99.90
2022-09-06T03:09:32.882Z,99.90
2022-09-06T03:11:59.506Z,99.90
2022-09-06T03:14:26.159Z,99.90
2022-09-06T03:16:52.963Z,99.90
2022-09-06T03:19:20.062Z,99.90
2022-09-06T03:21:46.690Z,99.90
2022-09-06T03:24:13.308Z,99.90
2022-09-06T03:26:39.913Z,99.90
2022-09-06T03:29:06.533Z,99.90
2022-09-06T03:31:33.182Z,99.90
2022-09-06T03:34:01.202Z,99.90
2022-09-06T03:36:27.850Z,99.90
2022-09-06T03:38:54.453Z,99.90
2022-09-06T03:41:21.104Z,99.90
2022-09-06T03:43:47.855Z,99.90
2022-09-06T03:46:14.641Z,99.90
2022-09-06T03:48:41.849Z,99.90
2022-09-06T03:51:08.445Z,99.90
2022-09-06T03:53:35.117Z,99.90
2022-09-06T03:56:01.893Z,99.90
2022-09-06T03:58:32.648Z,99.90
2022-09-06T04:01:08.363Z,99.90
2022-09-06T04:03:36.706Z,99.90
2022-09-06T04:06:04.446Z,99.90
2022-09-06T04:08:32.217Z,99.90
2022-09-06T04:10:59.787Z,99.90
2022-09-06T04:13:27.920Z,99.90
2022-09-06T04:15:54.745Z,99.90
2022-09-06T04:18:22.231Z,99.90
2022-09-06T04:20:50.594Z,99.90
2022-09-06T04:23:18.186Z,99.90
2022-09-06T04:25:52.973Z,99.90
2022-09-06T04:28:20.135Z,99.90
2022-09-06T04:30:53.943Z,99.90
2022-09-06T04:33:21.937Z,99.90
2022-09-06T04:35:50.111Z,99.90
2022-09-06T04:38:16.954Z,99.90
2022-09-06T04:40:43.659Z,99.90
2022-09-06T04:43:10.333Z,99.90
2022-09-06T04:45:37.176Z,99.90
2022-09-06T04:48:04.130Z,99.90
2022-09-06T04:50:30.905Z,99.90
2022-09-06T04:52:57.613Z,99.90
2022-09-06T04:55:26.348Z,99.90
2022-09-06T04:57:53.002Z,99.90
2022-09-06T05:00:19.732Z,99.90
2022-09-06T05:02:46.619Z,99.90
2022-09-06T05:05:13.297Z,99.90
2022-09-06T05:07:39.938Z,99.90
2022-09-06T05:10:06.833Z,99.90
2022-09-06T05:12:33.462Z,99.90
2022-09-06T05:15:00.070Z,99.90
2022-09-06T05:17:26.739Z,99.90
2022-09-06T05:19:53.379Z,99.90
2022-09-06T05:22:19.981Z,99.90
2022-09-06T05:24:46.607Z,99.90
2022-09-06T05:27:14.171Z,99.90
2022-09-06T05:29:40.975Z,99.90
2022-09-06T05:32:07.774Z,99.90
2022-09-06T05:34:34.471Z,99.90
2022-09-06T05:37:01.110Z,99.90
2022-09-06T05:39:27.736Z,99.90
2022-09-06T05:41:54.434Z,99.90
2022-09-06T05:44:21.045Z,99.90
2022-09-06T05:46:47.690Z,99.90
2022-09-06T05:49:14.326Z,99.90
2022-09-06T05:51:41.516Z,99.90
2022-09-06T05:54:10.557Z,99.90
2022-09-06T05:56:37.157Z,99.90
2022-09-06T05:59:04.413Z,99.90
2022-09-06T06:01:31.390Z,99.90
2022-09-06T06:04:03.364Z,99.90
2022-09-06T06:06:32.397Z,99.90
2022-09-06T06:08:59.549Z,99.90
2022-09-06T06:11:27.920Z,99.90
2022-09-06T06:13:54.627Z,99.90
2022-09-06T06:16:22.659Z,99.90
2022-09-06T06:18:52.189Z,99.90
2022-09-06T06:21:22.062Z,99.90
2022-09-06T06:23:55.370Z,99.90
2022-09-06T06:26:23.014Z,99.90
2022-09-06T06:28:49.841Z,99.90
2022-09-06T06:31:16.701Z,99.90
2022-09-06T06:33:44.241Z,99.90
2022-09-06T06:36:13.834Z,99.90
2022-09-06T06:38:42.541Z,99.90
2022-09-06T06:41:11.263Z,99.90
2022-09-06T06:43:38.163Z,99.90
2022-09-06T06:46:17.054Z,99.90
2022-09-06T06:48:45.041Z,99.90
2022-09-06T06:51:14.736Z,99.90
2022-09-06T06:53:41.543Z,99.90
2022-09-06T06:56:21.940Z,99.90
2022-09-06T06:58:50.810Z,99.90
2022-09-06T07:01:20.111Z,99.90
2022-09-06T07:03:47.465Z,99.90
2022-09-06T07:06:15.193Z,99.90
2022-09-06T07:08:42.783Z,99.90
2022-09-06T07:11:14.580Z,99.90
2022-09-06T07:13:41.441Z,99.90
2022-09-06T07:16:13.325Z,99.90
2022-09-06T07:18:43.302Z,99.90
2022-09-06T07:24:08.429Z,99.90
2022-09-06T07:26:37.543Z,99.90
2022-09-06T07:29:05.229Z,99.90
2022-09-06T07:34:20.357Z,99.90
2022-09-06T07:36:47.054Z,99.90
2022-09-06T07:39:14.067Z,99.90
2022-09-06T07:41:40.701Z,99.90
2022-09-06T07:44:07.317Z,99.90
2022-09-06T07:46:34.314Z,99.90
2022-09-06T07:49:03.422Z,99.90
2022-09-06T07:51:30.102Z,99.90
2022-09-06T07:56:43.351Z,99.90
2022-09-06T07:59:09.996Z,99.90
2022-09-06T08:01:40.092Z,99.90
2022-09-06T08:04:12.747Z,99.90
2022-09-06T08:09:28.836Z,99.90
2022-09-06T08:11:55.482Z,99.90
2022-09-06T08:14:22.109Z,99.90
2022-09-06T08:16:48.738Z,99.90
2022-09-06T08:19:15.509Z,99.90
2022-09-06T08:21:42.130Z,99.90
2022-09-06T08:24:12.049Z,99.90
2022-09-06T08:26:40.534Z,99.90
2022-09-06T08:29:08.943Z,99.90
2022-09-06T08:31:38.335Z,99.90
2022-09-06T08:34:05.268Z,99.90
2022-09-06T08:36:33.351Z,99.90
2022-09-06T08:39:02.263Z,99.90
2022-09-06T08:41:37.936Z,99.90
2022-09-06T08:47:04.232Z,99.90
2022-09-06T08:49:35.466Z,99.90
2022-09-06T08:52:41.831Z,99.90
2022-09-06T08:55:34.437Z,99.90
2022-09-06T08:58:29.038Z,99.90
2022-09-06T09:01:01.965Z,99.90
2022-09-06T09:03:36.504Z,99.90
2022-09-06T09:06:05.512Z,99.90
2022-09-06T09:09:01.838Z,99.90
2022-09-06T09:11:29.977Z,99.90
2022-09-06T09:14:05.705Z,99.90
2022-09-06T09:16:33.178Z,99.90
2022-09-06T09:19:02.962Z,99.90
2022-09-06T09:21:33.973Z,99.90
2022-09-06T09:24:06.698Z,99.90
2022-09-06T09:26:42.197Z,99.90
2022-09-06T09:29:12.361Z,99.90
2022-09-06T09:31:53.474Z,99.90
2022-09-06T09:34:34.497Z,99.90
2022-09-06T09:37:46.107Z,99.90
2022-09-06T09:40:15.914Z,99.90
2022-09-06T09:42:43.940Z,99.90
2022-09-06T09:45:26.937Z,99.90
2022-09-06T09:47:53.863Z,99.90
2022-09-06T09:50:28.823Z,99.90
2022-09-06T09:52:55.850Z,99.90
2022-09-06T09:55:24.918Z,99.90
2022-09-06T09:57:54.176Z,99.90
2022-09-06T10:00:36.325Z,99.90
2022-09-06T10:03:16.090Z,99.90
2022-09-06T10:05:56.375Z,99.90
2022-09-06T10:08:30.596Z,99.90
2022-09-06T10:10:58.023Z,99.90
2022-09-06T10:13:30.074Z,99.90
2022-09-06T10:15:58.854Z,99.90
2022-09-06T10:18:36.562Z,99.90
2022-09-06T10:21:07.455Z,99.90
2022-09-06T10:26:53.778Z,99.90
2022-09-06T10:29:34.275Z,99.90
2022-09-06T10:32:10.752Z,99.90
2022-09-06T10:34:46.236Z,99.90
2022-09-06T10:37:25.090Z,99.90
2022-09-06T10:40:12.593Z,99.90
2022-09-06T10:42:42.837Z,99.90
2022-09-06T10:45:32.890Z,99.90
2022-09-06T10:48:15.108Z,99.90
2022-09-06T10:50:53.383Z,99.90
2022-09-06T10:53:48.348Z,99.90
2022-09-06T10:56:24.436Z,99.90
2022-09-06T11:02:19.853Z,99.90
2022-09-06T11:10:45.246Z,99.90
2022-09-06T11:13:18.909Z,99.90
2022-09-06T11:16:00.619Z,99.90
2022-09-06T11:18:48.484Z,99.90
2022-09-06T11:21:40.120Z,99.90
2022-09-06T11:24:29.118Z,99.90
2022-09-06T11:27:05.452Z,99.90
2022-09-06T11:29:34.322Z,99.90
2022-09-06T11:32:20.313Z,99.90
2022-09-06T11:34:58.022Z,99.90
2022-09-06T11:37:32.736Z,99.90
2022-09-06T11:40:30.621Z,99.90
2022-09-06T11:42:59.248Z,99.90
2022-09-06T11:45:44.466Z,99.90
2022-09-06T11:48:34.479Z,99.90
2022-09-06T11:51:10.629Z,99.90
2022-09-06T11:53:49.566Z,99.90
2022-09-06T11:56:29.078Z,99.80
2022-09-06T11:59:29.221Z,99.40
2022-09-06T12:01:55.799Z,99.20
2022-09-06T12:04:23.932Z,99.20
2022-09-06T12:07:11.005Z,99.10
2022-09-06T12:09:38.854Z,97.90
2022-09-06T12:12:06.172Z,98.60
2022-09-06T12:14:35.917Z,98.50
2022-09-06T12:17:04.755Z,97.80
2022-09-06T12:19:44.102Z,97.30
2022-09-06T12:22:29.393Z,97.70
2022-09-06T12:25:40.951Z,97.30
2022-09-06T12:28:19.949Z,97.60
2022-09-06T12:30:48.724Z,96.90
2022-09-06T12:33:38.852Z,97.00
2022-09-06T12:36:17.290Z,96.50
2022-09-06T12:39:02.066Z,96.50
2022-09-06T12:41:31.816Z,96.80
2022-09-06T12:44:00.487Z,95.80
2022-09-06T12:46:30.013Z,95.80
2022-09-06T12:49:05.785Z,96.00
2022-09-06T12:51:33.482Z,95.70
2022-09-06T12:54:04.090Z,94.80
2022-09-06T12:56:35.626Z,94.90
2022-09-06T12:59:20.372Z,95.30
2022-09-06T13:02:20.978Z,94.50
2022-09-06T13:04:52.016Z,93.70
2022-09-06T13:07:21.180Z,93.80
2022-09-06T13:09:51.908Z,94.70
2022-09-06T13:12:37.634Z,93.70
2022-09-06T13:15:11.720Z,93.70
2022-09-06T13:17:38.710Z,93.00
2022-09-06T13:20:31.892Z,93.00
2022-09-06T13:23:11.021Z,93.10
2022-09-06T13:25:49.297Z,92.90
2022-09-06T13:28:26.191Z,93.30
2022-09-06T13:31:12.918Z,91.90
2022-09-06T13:33:40.730Z,91.90
2022-09-06T13:36:13.115Z,92.30
2022-09-06T13:38:40.211Z,92.00
2022-09-06T13:41:27.768Z,92.60
2022-09-06T13:44:07.730Z,92.70
2022-09-06T13:46:36.337Z,91.50
2022-09-06T13:49:03.483Z,91.00
2022-09-06T13:51:30.195Z,91.10
2022-09-06T13:54:23.310Z,91.20
2022-09-06T13:56:50.620Z,90.90
2022-09-06T13:59:18.682Z,90.80
2022-09-06T14:01:47.856Z,90.20
2022-09-06T14:04:19.612Z,90.10
2022-09-06T14:06:46.856Z,90.60
2022-09-06T14:09:13.691Z,90.20
2022-09-06T14:11:42.077Z,90.00
2022-09-06T14:14:12.233Z,89.00
2022-09-06T14:16:39.021Z,88.70
2022-09-06T14:19:05.861Z,87.40
2022-09-06T14:21:32.889Z,89.20
2022-09-06T14:24:03.877Z,88.80
2022-09-06T14:26:31.310Z,89.00
2022-09-06T14:28:57.970Z,89.40
2022-09-06T14:31:26.962Z,89.20
2022-09-06T14:33:54.878Z,88.10
2022-09-06T14:36:23.674Z,89.80
2022-09-06T14:38:50.806Z,89.50
2022-09-06T14:41:19.059Z,90.00
2022-09-06T14:43:52.961Z,89.30
2022-09-06T14:46:21.952Z,88.50
2022-09-06T14:48:49.361Z,90.00
2022-09-06T14:51:24.037Z,90.50
2022-09-06T14:53:54.309Z,90.50
2022-09-06T14:56:21.605Z,90.40
2022-09-06T14:58:48.626Z,91.10
2022-09-06T15:01:24.299Z,91.60
2022-09-06T15:03:58.979Z,91.80
2022-09-06T15:06:27.223Z,91.40
2022-09-06T15:08:59.167Z,91.60
2022-09-06T15:11:39.270Z,92.00
2022-09-06T15:14:08.666Z,92.20
2022-09-06T15:16:36.184Z,92.20
2022-09-06T15:19:02.973Z,92.40
2022-09-06T15:21:30.341Z,92.00
2022-09-06T15:23:57.183Z,92.00
2022-09-06T15:26:24.037Z,92.50
2022-09-06T15:28:50.722Z,92.20
2022-09-06T15:31:17.561Z,92.80
2022-09-06T15:33:44.391Z,92.60
2022-09-06T15:36:11.987Z,92.70
2022-09-06T15:38:43.168Z,92.60
2022-09-06T15:41:18.638Z,92.70
2022-09-06T15:43:47.689Z,92.80
2022-09-06T15:46:16.817Z,93.00
2022-09-06T15:48:48.962Z,93.00
2022-09-06T15:51:16.732Z,92.90
2022-09-06T15:53:44.163Z,93.00
2022-09-06T15:56:14.968Z,93.30
2022-09-06T15:58:41.835Z,93.60
2022-09-06T16:01:17.549Z,93.40
2022-09-06T16:03:48.971Z,93.30
2022-09-06T16:09:00.888Z,93.20
2022-09-06T16:11:28.248Z,93.20
2022-09-06T16:13:55.070Z,92.80
2022-09-06T16:16:22.719Z,92.90
2022-09-06T16:18:49.693Z,92.90
2022-09-06T16:21:21.479Z,92.90
2022-09-06T16:23:50.201Z,92.90
2022-09-06T16:26:21.345Z,93.30
2022-09-06T16:28:50.572Z,93.30
2022-09-06T16:31:18.366Z,93.20
2022-09-06T16:33:45.684Z,93.20
2022-09-06T16:36:13.866Z,92.90
2022-09-06T16:38:41.317Z,92.50
2022-09-06T16:41:21.845Z,92.80
2022-09-06T16:43:55.125Z,92.90
2022-09-06T16:46:24.193Z,92.30
2022-09-06T16:48:53.178Z,88.60
2022-09-06T16:51:22.026Z,82.20
2022-09-06T16:53:49.615Z,79.00
2022-09-06T16:56:18.557Z,76.80
2022-09-06T16:58:53.015Z,75.00
2022-09-06T17:01:20.830Z,75.50
2022-09-06T17:03:48.612Z,78.90
2022-09-06T17:06:15.760Z,86.50
2022-09-06T17:08:42.723Z,90.80
2022-09-06T17:11:15.431Z,92.50
2022-09-06T17:13:43.309Z,94.20
2022-09-06T17:16:28.799Z,94.90
2022-09-06T17:18:55.714Z,95.80
2022-09-06T17:21:24.203Z,96.70
2022-09-06T17:23:52.084Z,97.40
2022-09-06T17:26:21.081Z,97.90
2022-09-06T17:28:49.008Z,98.20
2022-09-06T17:31:16.603Z,98.60
2022-09-06T17:33:45.610Z,98.90
2022-09-06T17:36:15.115Z,99.40
2022-09-06T17:38:42.869Z,99.80
2022-09-06T17:41:19.934Z,99.90
2022-09-06T17:43:47.370Z,99.90
2022-09-06T17:46:14.347Z,99.90
2022-09-06T17:48:41.153Z,99.90
2022-09-06T17:51:08.620Z,99.90
2022-09-06T17:53:36.067Z,99.90
2022-09-06T17:56:05.135Z,99.90
2022-09-06T17:58:32.458Z,99.90
2022-09-06T18:01:07.196Z,99.90
2022-09-06T18:03:34.917Z,99.90
2022-09-06T18:06:22.685Z,99.90
2022-09-06T18:08:51.554Z,99.90
2022-09-06T18:11:25.628Z,99.90
2022-09-06T18:13:58.323Z,99.90
2022-09-06T18:16:26.391Z,99.90
2022-09-06T18:18:58.713Z,99.90
2022-09-06T18:21:26.201Z,99.90
2022-09-06T18:23:56.869Z,99.90
2022-09-06T18:26:24.332Z,99.90
2022-09-06T18:28:52.837Z,99.90
2022-09-06T18:31:21.889Z,99.90
2022-09-06T18:33:48.570Z,99.90
2022-09-06T18:36:16.074Z,99.90
2022-09-06T18:38:43.394Z,99.90
2022-09-06T18:41:32.175Z,99.90
2022-09-06T18:44:00.631Z,99.90
2022-09-06T18:46:27.660Z,99.90
2022-09-06T18:48:55.548Z,99.90
2022-09-06T18:51:23.003Z,99.90
2022-09-06T18:53:49.706Z,99.90
2022-09-06T18:56:16.584Z,99.90
2022-09-06T18:58:43.414Z,99.90
2022-09-06T19:01:13.210Z,99.90
2022-09-06T19:03:41.368Z,99.90
2022-09-06T19:06:14.586Z,99.90
2022-09-06T19:08:41.878Z,99.90
2022-09-06T19:11:14.282Z,99.90
2022-09-06T19:13:41.966Z,99.90
2022-09-06T19:16:10.143Z,99.90
2022-09-06T19:18:37.331Z,99.90
2022-09-06T19:21:08.456Z,99.90
2022-09-06T19:23:37.791Z,99.90
2022-09-06T19:26:19.235Z,99.90
2022-09-06T19:28:51.103Z,99.90
2022-09-06T19:31:18.588Z,99.90
2022-09-06T19:33:47.461Z,99.90
2022-09-06T19:36:14.897Z,99.90
2022-09-06T19:39:01.951Z,99.90
2022-09-06T19:41:30.021Z,99.90
2022-09-06T19:43:58.105Z,99.90
2022-09-06T19:46:25.881Z,99.90
2022-09-06T19:48:54.076Z,99.90
2022-09-06T19:51:21.480Z,99.90
2022-09-06T19:53:53.382Z,99.90
2022-09-06T19:56:26.258Z,99.90
2022-09-06T19:58:55.298Z,99.90
2022-09-06T20:01:23.060Z,99.90
2022-09-06T20:03:50.188Z,99.90
2022-09-06T20:06:17.166Z,99.90
2022-09-06T20:08:44.054Z,99.90
2022-09-06T20:11:12.693Z,99.90
2022-09-06T20:13:39.694Z,99.90
2022-09-06T20:16:08.836Z,99.90
2022-09-06T20:18:36.120Z,99.90
2022-09-06T20:21:03.329Z,99.90
2022-09-06T20:23:31.918Z,99.90
2022-09-06T20:26:03.290Z,99.90
2022-09-06T20:28:30.625Z,99.90
2022-09-06T20:31:06.268Z,99.90
2022-09-06T20:33:33.795Z,99.90
2022-09-06T20:36:03.094Z,99.90
2022-09-06T20:38:31.439Z,99.90
2022-09-06T20:41:05.827Z,99.90
2022-09-06T20:43:36.379Z,99.90
2022-09-06T20:46:15.372Z,99.90
2022-09-06T20:48:44.885Z,99.90
2022-09-06T20:51:20.850Z,99.90
2022-09-06T20:53:53.566Z,99.90
2022-09-06T20:56:34.872Z,99.90
2022-09-06T20:59:03.986Z,99.90
2022-09-06T21:01:34.565Z,99.90
2022-09-06T21:04:03.475Z,99.90
2022-09-06T21:06:33.744Z,99.90
2022-09-06T21:09:00.556Z,99.90
2022-09-06T21:11:27.479Z,99.90
2022-09-06T21:13:56.581Z,99.90
2022-09-06T21:16:25.571Z,99.90
2022-09-06T21:18:53.843Z,99.90
2022-09-06T21:21:22.356Z,99.90
2022-09-06T21:23:49.399Z,99.90
2022-09-06T21:26:16.234Z,99.90
2022-09-06T21:28:43.925Z,99.90
2022-09-06T21:31:19.303Z,99.90
2022-09-06T21:33:48.996Z,99.90
2022-09-06T21:36:19.237Z,99.90
2022-09-06T21:38:52.519Z,99.90
2022-09-06T21:41:19.602Z,99.90
2022-09-06T21:43:46.743Z,99.90
2022-09-06T21:46:17.052Z,99.90
2022-09-06T21:48:46.175Z,99.90
2022-09-06T21:51:17.214Z,99.90
2022-09-06T21:53:45.514Z,99.90
2022-09-06T21:56:13.486Z,99.90
2022-09-06T21:58:40.996Z,99.90
2022-09-06T22:01:08.207Z,99.90
2022-09-06T22:03:37.446Z,99.90
2022-09-06T22:06:18.718Z,99.90
2022-09-06T22:08:46.314Z,99.90
2022-09-06T22:11:15.799Z,99.90
2022-09-06T22:13:43.467Z,99.90
2022-09-06T22:16:11.264Z,99.90
2022-09-06T22:18:38.501Z,99.90
2022-09-06T22:21:07.651Z,99.90
2022-09-06T22:23:34.870Z,99.90
2022-09-06T22:26:01.632Z,99.90
2022-09-06T22:28:28.472Z,99.90
2022-09-06T22:30:55.189Z,99.90
2022-09-06T22:33:21.930Z,99.90
2022-09-06T22:35:48.606Z,99.90
2022-09-06T22:38:15.345Z,99.90
2022-09-06T22:40:41.945Z,99.90
2022-09-06T22:43:08.620Z,99.90
2022-09-06T22:45:35.804Z,99.90
2022-09-06T22:48:02.845Z,99.90
2022-09-06T22:50:30.674Z,99.90
2022-09-06T22:52:57.478Z,99.90
2022-09-06T22:55:24.127Z,99.90
2022-09-06T22:57:50.774Z,99.90
2022-09-06T23:00:18.430Z,99.90
2022-09-06T23:02:45.074Z,99.90
2022-09-06T23:05:11.772Z,99.90
2022-09-06T23:07:38.491Z,99.90
2022-09-06T23:10:05.632Z,99.90
2022-09-06T23:12:32.287Z,99.90
2022-09-06T23:14:58.938Z,99.90
2022-09-06T23:17:25.613Z,99.90
2022-09-06T23:19:52.295Z,99.90
2022-09-06T23:22:18.918Z,99.90
2022-09-06T23:24:46.233Z,99.90
2022-09-06T23:27:13.066Z,99.90
2022-09-06T23:29:41.032Z,99.90
2022-09-06T23:32:07.820Z,99.90
2022-09-06T23:34:34.637Z,99.90
2022-09-06T23:37:01.295Z,99.90
2022-09-06T23:39:28.455Z,99.90
2022-09-06T23:41:55.886Z,99.90
2022-09-06T23:44:23.110Z,99.90
2022-09-06T23:46:49.993Z,99.90
2022-09-06T23:49:16.658Z,99.90
2022-09-06T23:51:44.197Z,99.90
2022-09-06T23:54:10.926Z,99.90
2022-09-06T23:56:37.580Z,99.90
2022-09-06T23:59:04.318Z,99.90
